Time;durP1;ratioP1;P1;durP2;ratioP2;P2;SDS_P1;SDS_P2;PMS_P1;PMS_P2;Temp;Humidity;BMP_temperature;BMP_pressure;BME280_temperature;BME280_humidity;BME280_pressure;Samples;Min_cycle;Max_cycle;Signal;HPM_P1;HPM_P2
2022/09/06 00:01:16;;;;;;;4.78;2.75;;;;;;;20.23;100.00;101260.81;5005953;28;20095;-80
2022/09/06 00:03:43;;;;;;;6.57;2.88;;;;;;;20.20;100.00;101246.22;5039655;28;20389;-82
2022/09/06 00:06:14;;;;;;;4.88;2.35;;;;;;;20.11;100.00;101247.25;5021373;28;20058;-83
2022/09/06 00:08:50;;;;;;;4.43;2.47;;;;;;;19.99;100.00;101224.50;5024361;28;20048;-82
2022/09/06 00:11:17;;;;;;;4.30;2.50;;;;;;;19.97;100.00;101217.38;5023018;28;20568;-82
2022/09/06 00:13:46;;;;;;;3.85;2.42;;;;;;;19.93;100.00;101219.63;5030066;28;20037;-82
2022/09/06 00:16:21;;;;;;;5.60;2.40;;;;;;;20.02;100.00;101238.06;5028692;28;20033;-81
2022/09/06 00:18:47;;;;;;;3.67;2.13;;;;;;;20.00;100.00;101239.25;5007258;28;20024;-83
2022/09/06 00:21:25;;;;;;;4.18;2.58;;;;;;;20.07;100.00;101251.44;5006963;28;20113;-81
2022/09/06 00:23:51;;;;;;;5.03;2.42;;;;;;;19.97;100.00;101257.16;5007426;28;20034;-81
2022/09/06 00:26:18;;;;;;;4.38;2.25;;;;;;;19.88;100.00;101280.44;5037472;28;20037;-80
2022/09/06 00:28:44;;;;;;;6.00;3.00;;;;;;;19.96;100.00;101333.25;5019326;28;20041;-81
2022/09/06 00:31:19;;;;;;;7.78;2.80;;;;;;;19.78;100.00;101377.84;5040010;28;20037;-80
2022/09/06 00:33:45;;;;;;;5.03;2.70;;;;;;;19.69;100.00;101372.41;5026554;28;20025;-82
2022/09/06 00:36:12;;;;;;;11.93;3.55;;;;;;;19.79;100.00;101339.81;5024025;28;20037;-82
2022/09/06 00:38:39;;;;;;;7.50;3.17;;;;;;;19.79;100.00;101349.03;5010331;28;20400;-81
2022/09/06 00:41:06;;;;;;;6.65;3.05;;;;;;;19.53;100.00;101376.00;5024031;28;20073;-81
2022/09/06 00:43:33;;;;;;;6.10;3.78;;;;;;;19.47;100.00;101369.22;5036185;28;20033;-81
2022/09/06 00:46:06;;;;;;;6.30;3.67;;;;;;;19.44;100.00;101367.63;4997424;28;20041;-80
2022/09/06 00:48:36;;;;;;;5.07;3.63;;;;;;;19.40;100.00;101352.34;5026402;28;20030;-81
2022/09/06 00:51:09;;;;;;;7.05;3.80;;;;;;;19.34;100.00;101360.47;5028393;28;20033;-81
2022/09/06 00:53:35;;;;;;;5.00;4.00;;;;;;;19.41;100.00;101361.53;5035264;28;20034;-81
2022/09/06 00:56:03;;;;;;;7.97;4.20;;;;;;;19.41;100.00;101351.31;5039864;28;20029;-82
2022/09/06 00:58:29;;;;;;;6.38;3.72;;;;;;;19.46;100.00;101339.69;5022997;28;20022;-81
2022/09/06 01:01:01;;;;;;;5.95;3.90;;;;;;;19.50;100.00;101324.44;5053770;28;20374;-80
2022/09/06 01:03:35;;;;;;;5.03;3.40;;;;;;;19.46;100.00;101317.47;5028849;28;20025;-81
2022/09/06 01:06:16;;;;;;;6.22;3.90;;;;;;;19.54;100.00;101316.63;5025889;28;20356;-80
2022/09/06 01:08:48;;;;;;;11.90;4.90;;;;;;;19.67;100.00;101308.66;5021239;28;20073;-81
2022/09/06 01:11:25;;;;;;;8.18;4.70;;;;;;;19.65;100.00;101294.94;5020868;28;20500;-82
2022/09/06 01:14:15;;;;;;;9.02;4.70;;;;;;;19.54;100.00;101294.41;5028928;28;20116;-81
2022/09/06 01:17:13;;;;;;;7.25;4.45;;;;;;;19.39;100.00;101291.41;5032398;28;20025;-82
2022/09/06 01:19:41;;;;;;;5.03;4.20;;;;;;;19.27;100.00;101286.16;5038201;28;20067;-81
2022/09/06 01:22:26;;;;;;;10.02;5.53;;;;;;;19.15;100.00;101293.09;5036384;28;20032;-82
2022/09/06 01:25:09;;;;;;;9.73;5.00;;;;;;;19.35;100.00;101287.22;5024186;28;20881;-82
2022/09/06 01:27:57;;;;;;;6.53;5.22;;;;;;;19.19;100.00;101301.94;5024952;28;20034;-82
2022/09/06 01:30:24;;;;;;;9.35;5.75;;;;;;;19.13;100.00;101283.16;5023879;28;20092;-80
2022/09/06 01:33:30;;;;;;;10.13;5.72;;;;;;;18.98;100.00;101274.59;5031946;28;20034;-82
2022/09/06 01:36:07;;;;;;;6.95;5.38;;;;;;;19.00;100.00;101267.84;5016485;28;20049;-81
2022/09/06 01:38:37;;;;;;;10.45;6.05;;;;;;;18.96;100.00;101265.59;5018079;28;20163;-82
2022/09/06 01:41:09;;;;;;;11.57;5.95;;;;;;;19.01;100.00;101265.94;5002033;28;20033;-82
2022/09/06 01:43:48;;;;;;;9.05;6.35;;;;;;;18.92;100.00;101265.91;5019861;28;20049;-82
2022/09/06 01:46:49;;;;;;;16.73;7.70;;;;;;;18.85;100.00;101259.28;5036358;28;20029;-82
2022/09/06 01:49:45;;;;;;;15.75;8.43;;;;;;;19.00;100.00;101255.88;5040299;28;20358;-82
2022/09/06 01:52:20;;;;;;;13.48;8.18;;;;;;;18.86;100.00;101251.84;5039945;28;20036;-82
2022/09/06 01:55:33;;;;;;;14.38;7.68;;;;;;;18.87;100.00;101245.22;5045796;28;20095;-82
2022/09/06 01:58:35;;;;;;;19.05;9.05;;;;;;;18.76;100.00;101249.16;5034954;28;20022;-82
2022/09/06 02:01:28;;;;;;;15.93;9.05;;;;;;;18.89;100.00;101246.81;5028793;28;20091;-81
2022/09/06 02:04:23;;;;;;;15.60;8.35;;;;;;;18.53;100.00;101238.63;5035725;28;20037;-83
2022/09/06 02:07:06;;;;;;;14.73;10.15;;;;;;;18.53;100.00;101221.97;5016006;28;20034;-81
2022/09/06 02:09:42;;;;;;;18.40;10.98;;;;;;;18.49;100.00;101211.38;5032792;28;20025;-81
2022/09/06 02:12:13;;;;;;;22.98;12.05;;;;;;;18.39;100.00;101189.31;5023197;28;20500;-81
2022/09/06 02:14:46;;;;;;;16.67;11.53;;;;;;;18.41;100.00;101184.47;5020224;28;20117;-82
2022/09/06 02:17:16;;;;;;;18.15;10.77;;;;;;;18.40;100.00;101177.19;5029108;28;20338;-81
2022/09/06 02:19:50;;;;;;;20.25;10.95;;;;;;;18.48;100.00;101176.34;5019738;28;20033;-81
2022/09/06 02:22:20;;;;;;;20.10;11.40;;;;;;;18.45;100.00;101166.47;5027791;28;20032;-80
2022/09/06 02:24:48;;;;;;;21.23;10.85;;;;;;;18.45;100.00;101168.38;5046473;28;20441;-81
2022/09/06 02:27:18;;;;;;;22.00;11.48;;;;;;;18.41;100.00;101167.81;5026968;28;20029;-81
2022/09/06 02:29:52;;;;;;;16.63;10.20;;;;;;;18.54;100.00;101157.19;5022661;28;20044;-80
2022/09/06 02:32:21;;;;;;;23.15;12.25;;;;;;;18.49;100.00;101167.00;5002568;28;20068;-80
2022/09/06 02:34:53;;;;;;;26.20;12.20;;;;;;;18.38;100.00;101165.38;5029556;28;20057;-81
2022/09/06 02:37:22;;;;;;;27.70;14.30;;;;;;;18.37;100.00;101160.88;5020510;28;20025;-80
2022/09/06 02:39:54;;;;;;;24.08;14.40;;;;;;;18.32;100.00;101166.06;5032338;28;20046;-81
2022/09/06 02:42:25;;;;;;;30.30;13.93;;;;;;;18.37;100.00;101166.44;4993210;28;20040;-81
2022/09/06 02:44:52;;;;;;;29.00;14.05;;;;;;;18.29;100.00;101155.31;5031036;28;20044;-81
2022/09/06 02:47:21;;;;;;;25.75;13.80;;;;;;;18.24;100.00;101154.94;4997518;28;20064;-81
2022/09/06 02:49:52;;;;;;;30.60;15.32;;;;;;;18.27;100.00;101151.84;5017388;28;20038;-81
2022/09/06 02:52:22;;;;;;;26.30;14.15;;;;;;;18.33;100.00;101148.38;5029883;28;20093;-81
2022/09/06 02:54:47;;;;;;;25.33;14.93;;;;;;;18.26;100.00;101144.53;5001184;28;20098;-82
2022/09/06 02:57:14;;;;;;;37.13;15.63;;;;;;;18.26;100.00;101139.84;5022026;28;20034;-82
2022/09/06 02:59:45;;;;;;;31.83;15.93;;;;;;;18.12;100.00;101133.03;5007704;28;20040;-80
2022/09/06 03:02:16;;;;;;;37.57;17.57;;;;;;;18.13;100.00;101153.28;5001989;28;20045;-81
2022/09/06 03:04:45;;;;;;;36.47;16.63;;;;;;;18.24;100.00;101153.03;5036974;28;20448;-81
2022/09/06 03:07:15;;;;;;;36.10;17.65;;;;;;;18.17;100.00;101141.72;5019788;28;20052;-81
2022/09/06 03:09:41;;;;;;;30.50;16.58;;;;;;;18.19;100.00;101150.72;5029035;28;20030;-81
2022/09/06 03:12:07;;;;;;;43.33;16.55;;;;;;;18.29;100.00;101150.63;5041990;28;20044;-82
2022/09/06 03:14:34;;;;;;;30.95;17.33;;;;;;;18.24;100.00;101138.31;5030103;28;20029;-82
2022/09/06 03:17:02;;;;;;;30.63;16.77;;;;;;;18.24;100.00;101135.53;4991413;28;20029;-82
2022/09/06 03:19:28;;;;;;;31.00;16.20;;;;;;;18.16;100.00;101130.81;5034249;28;20046;-82
2022/09/06 03:21:55;;;;;;;33.10;16.38;;;;;;;18.18;100.00;101137.03;5004822;28;20104;-83
2022/09/06 03:24:20;;;;;;;31.88;16.08;;;;;;;18.04;100.00;101116.34;4991606;28;20045;-82
2022/09/06 03:26:53;;;;;;;28.20;15.85;;;;;;;18.10;100.00;101129.56;4989719;28;20054;-82
2022/09/06 03:29:21;;;;;;;32.78;17.10;;;;;;;18.03;100.00;101131.22;5007117;28;20486;-82
2022/09/06 03:31:46;;;;;;;31.75;16.10;;;;;;;18.06;100.00;101142.00;5057261;28;20038;-82
2022/09/06 03:34:12;;;;;;;32.47;17.08;;;;;;;18.02;100.00;101143.38;5005921;28;20139;-82
2022/09/06 03:36:41;;;;;;;29.35;16.10;;;;;;;18.07;100.00;101153.94;5021369;28;20061;-82
2022/09/06 03:39:08;;;;;;;35.88;17.38;;;;;;;18.06;100.00;101155.00;5032970;28;20040;-81
2022/09/06 03:41:34;;;;;;;35.92;16.92;;;;;;;18.05;100.00;101153.25;5014580;28;20040;-81
2022/09/06 03:44:03;;;;;;;35.67;18.00;;;;;;;18.02;100.00;101143.38;5017192;28;20124;-79
2022/09/06 03:46:31;;;;;;;37.72;19.10;;;;;;;18.00;100.00;101151.84;5033103;28;20037;-80
2022/09/06 03:49:01;;;;;;;44.53;17.80;;;;;;;17.93;100.00;101158.19;5034200;28;20132;-82
2022/09/06 03:51:27;;;;;;;33.65;18.63;;;;;;;17.92;100.00;101151.78;5035273;28;20145;-81
2022/09/06 03:53:54;;;;;;;31.52;17.63;;;;;;;17.85;100.00;101141.47;5020240;28;20033;-81
2022/09/06 03:56:20;;;;;;;36.25;19.48;;;;;;;17.73;100.00;101149.19;5010057;28;20040;-82
2022/09/06 03:58:49;;;;;;;38.20;19.02;;;;;;;17.74;100.00;101143.50;5032578;28;20116;-81
2022/09/06 04:01:18;;;;;;;47.92;22.05;;;;;;;17.80;100.00;101147.50;5008559;28;20030;-80
2022/09/06 04:03:43;;;;;;;61.75;26.40;;;;;;;17.62;100.00;101140.09;5025892;28;20041;-80
2022/09/06 04:06:10;;;;;;;67.75;27.95;;;;;;;17.64;100.00;101139.94;5023041;28;20318;-82
2022/09/06 04:08:37;;;;;;;75.88;29.70;;;;;;;17.57;100.00;101138.84;5028565;28;20504;-82
2022/09/06 04:11:04;;;;;;;78.97;30.77;;;;;;;17.47;100.00;101129.75;5036927;28;20026;-79
2022/09/06 04:13:36;;;;;;;84.13;30.10;;;;;;;17.54;100.00;101140.00;5025291;28;20397;-80
2022/09/06 04:16:05;;;;;;;81.88;32.38;;;;;;;17.44;100.00;101139.25;5003945;28;20088;-80
2022/09/06 04:18:30;;;;;;;95.25;33.53;;;;;;;17.40;100.00;101130.41;5005335;28;20129;-80
2022/09/06 04:20:59;;;;;;;99.18;32.58;;;;;;;17.48;100.00;101139.78;5021591;28;20057;-79
2022/09/06 04:23:27;;;;;;;86.20;32.42;;;;;;;17.39;100.00;101147.16;5035986;28;20097;-80
2022/09/06 04:25:55;;;;;;;86.63;31.98;;;;;;;17.37;100.00;101149.22;5023125;28;20041;-81
2022/09/06 04:28:25;;;;;;;83.10;29.75;;;;;;;17.22;100.00;101137.84;5012167;28;20038;-81
2022/09/06 04:30:56;;;;;;;64.40;27.23;;;;;;;17.42;100.00;101146.84;4998017;28;20092;-83
2022/09/06 04:33:24;;;;;;;64.07;25.15;;;;;;;17.35;100.00;101156.78;5019744;28;20033;-83
2022/09/06 04:35:52;;;;;;;51.00;24.48;;;;;;;17.27;100.00;101165.91;5028330;28;20038;-82
2022/09/06 04:38:18;;;;;;;53.08;24.35;;;;;;;17.29;100.00;101155.53;5031059;28;20544;-82
2022/09/06 04:40:44;;;;;;;52.00;22.88;;;;;;;17.34;100.00;101153.16;5021322;28;20062;-83
2022/09/06 04:43:09;;;;;;;55.92;21.80;;;;;;;17.34;100.00;101160.63;5007674;28;20061;-82
2022/09/06 04:45:45;;;;;;;56.42;21.83;;;;;;;17.34;100.00;101160.63;5033794;28;20038;-82
2022/09/06 04:48:19;;;;;;;52.25;21.65;;;;;;;17.35;100.00;101156.78;5019218;28;20061;-82
2022/09/06 04:50:49;;;;;;;46.75;22.52;;;;;;;17.41;100.00;101157.06;5023741;28;20052;-81
2022/09/06 04:53:16;;;;;;;54.10;23.33;;;;;;;17.36;100.00;101161.31;5025524;28;20033;-82
2022/09/06 04:55:46;;;;;;;50.90;23.27;;;;;;;17.36;100.00;101170.47;5026131;28;20033;-81
2022/09/06 04:58:12;;;;;;;44.83;21.85;;;;;;;17.33;100.00;101168.06;5023296;28;20033;-80
2022/09/06 05:00:40;;;;;;;45.30;21.52;;;;;;;17.29;100.00;101174.91;5029533;28;20046;-80
2022/09/06 05:03:10;;;;;;;53.13;24.33;;;;;;;17.21;100.00;101183.13;5024096;28;20065;-79
2022/09/06 05:05:37;;;;;;;53.58;21.65;;;;;;;17.14;100.00;101193.97;5035654;28;20029;-80
2022/09/06 05:08:06;;;;;;;36.58;20.83;;;;;;;17.14;100.00;101184.81;5018879;28;20030;-79
2022/09/06 05:10:36;;;;;;;44.50;21.85;;;;;;;17.12;100.00;101187.72;5011609;28;20091;-79
2022/09/06 05:13:02;;;;;;;50.63;22.52;;;;;;;17.12;100.00;101195.13;5015352;28;20041;-80
2022/09/06 05:15:29;;;;;;;48.72;22.25;;;;;;;17.10;100.00;101184.22;4987691;28;20084;-78
2022/09/06 05:18:03;;;;;;;38.90;20.60;;;;;;;17.08;100.00;101189.91;5028931;28;20038;-79
2022/09/06 05:20:31;;;;;;;47.78;21.02;;;;;;;17.00;100.00;101166.81;5002887;28;20061;-77
2022/09/06 05:22:58;;;;;;;44.13;20.33;;;;;;;17.10;100.00;101195.28;4994885;28;20489;-80
2022/09/06 05:25:24;;;;;;;38.28;18.92;;;;;;;17.08;100.00;101189.06;5041031;28;20033;-80
2022/09/06 05:27:57;;;;;;;44.88;19.50;;;;;;;17.15;100.00;101189.28;5019675;28;20503;-80
2022/09/06 05:30:26;;;;;;;40.60;20.00;;;;;;;17.12;100.00;101195.13;5004585;28;20161;-79
2022/09/06 05:33:02;;;;;;;49.53;20.25;;;;;;;17.15;100.00;101183.75;5020399;28;20038;-81
2022/09/06 05:35:35;;;;;;;43.13;20.85;;;;;;;17.15;100.00;101190.19;5019964;28;20543;-80
2022/09/06 05:38:07;;;;;;;;;;;;;;;17.18;100.00;101187.06;5004299;28;20021;-81
2022/09/06 05:40:36;;;;;;;41.90;21.10;;;;;;;17.19;100.00;101185.19;5024010;28;19975;-80
2022/09/06 05:43:03;;;;;;;45.17;21.45;;;;;;;17.22;100.00;101179.34;5013846;28;20040;-80
2022/09/06 05:45:29;;;;;;;44.80;22.52;;;;;;;17.29;100.00;101185.13;5018935;28;20038;-80
2022/09/06 05:47:54;;;;;;;54.05;23.33;;;;;;;17.27;100.00;101188.06;5017463;28;20569;-80
2022/09/06 05:50:26;;;;;;;42.38;22.88;;;;;;;17.24;100.00;101183.69;4987627;28;20033;-79
2022/09/06 05:52:54;;;;;;;50.45;23.42;;;;;;;17.38;100.00;101187.81;5018092;28;20026;-80
2022/09/06 05:55:25;;;;;;;52.85;24.33;;;;;;;17.51;100.00;101175.47;5004543;28;20034;-79
2022/09/06 05:57:51;;;;;;;53.58;23.23;;;;;;;17.57;100.00;101181.22;5035885;28;20053;-80
2022/09/06 06:00:24;;;;;;;44.28;23.67;;;;;;;17.76;100.00;101184.88;5021993;28;20026;-80
2022/09/06 06:02:53;;;;;;;50.17;22.90;;;;;;;17.92;100.00;101185.03;5019451;28;20120;-80
2022/09/06 06:05:19;;;;;;;54.97;22.58;;;;;;;18.20;100.00;101184.88;5000104;28;20048;-81
2022/09/06 06:07:54;;;;;;;48.53;22.30;;;;;;;18.30;100.00;101190.28;5004292;28;20042;-80
2022/09/06 06:10:25;;;;;;;47.15;23.13;;;;;;;18.43;100.00;101187.06;5009263;28;20030;-80
2022/09/06 06:12:52;;;;;;;49.33;22.40;;;;;;;18.51;100.00;101182.47;5005998;28;20071;-80
2022/09/06 06:15:22;;;;;;;45.25;21.17;;;;;;;18.78;100.00;101188.81;5052832;28;20048;-80
2022/09/06 06:17:47;;;;;;;46.35;21.13;;;;;;;18.89;100.00;101198.78;5022505;28;20397;-81
2022/09/06 06:20:15;;;;;;;43.25;21.00;;;;;;;18.89;100.00;101202.41;5022203;28;20531;-80
2022/09/06 06:22:41;;;;;;;43.20;21.58;;;;;;;18.77;100.00;101206.47;5003594;28;20510;-80
2022/09/06 06:25:08;;;;;;;55.03;24.35;;;;;;;18.92;100.00;101188.22;5022907;28;20521;-80
2022/09/06 06:27:37;;;;;;;43.97;22.65;;;;;;;19.15;100.00;101186.69;5004573;28;20505;-79
2022/09/06 06:30:07;;;;;;;51.85;23.67;;;;;;;19.46;100.00;101198.03;5021600;28;20025;-79
2022/09/06 06:32:33;;;;;;;54.60;24.92;;;;;;;19.55;100.00;101198.94;5037331;28;20486;-79
2022/09/06 06:35:03;;;;;;;51.95;21.92;;;;;;;19.77;100.00;101206.59;5021110;28;20172;-78
2022/09/06 06:37:32;;;;;;;42.33;22.60;;;;;;;19.68;100.00;101210.41;5043389;28;20060;-80
2022/09/06 06:40:01;;;;;;;44.78;21.23;;;;;;;19.80;100.00;101199.84;5017595;28;20042;-80
2022/09/06 06:42:29;;;;;;;40.78;21.73;;;;;;;19.71;100.00;101198.06;5020501;28;20030;-80
2022/09/06 06:44:55;;;;;;;40.55;19.75;;;;;;;19.97;100.00;101196.03;5021049;28;20112;-81
2022/09/06 06:47:21;;;;;;;44.33;20.50;;;;;;;20.38;100.00;101208.97;5029664;28;20103;-80
2022/09/06 06:49:48;;;;;;;41.25;20.65;;;;;;;20.03;100.00;101200.00;5029460;28;20052;-80
2022/09/06 06:52:20;;;;;;;42.42;20.23;;;;;;;19.95;100.00;101206.41;5025483;28;20501;-80
2022/09/06 06:54:51;;;;;;;42.45;18.85;;;;;;;20.14;100.00;101202.41;5022776;28;20097;-80
2022/09/06 06:57:22;;;;;;;42.35;18.58;;;;;;;20.71;100.00;101204.22;5044816;28;20029;-80
2022/09/06 06:59:49;;;;;;;34.47;18.00;;;;;;;20.98;100.00;101192.81;5040797;28;20049;-80
2022/09/06 07:02:17;;;;;;;43.45;17.73;;;;;;;20.35;100.00;101199.09;5003538;28;20044;-80
2022/09/06 07:04:47;;;;;;;46.08;19.58;;;;;;;20.41;100.00;101191.94;5024580;28;20461;-80
2022/09/06 07:07:17;;;;;;;48.20;18.52;;;;;;;20.88;100.00;101187.44;5042810;28;20108;-79
2022/09/06 07:09:51;;;;;;;48.97;18.27;;;;;;;21.09;100.00;101184.91;5012496;28;20038;-79
2022/09/06 07:12:17;;;;;;;42.55;17.55;;;;;;;21.49;100.00;101187.63;5022567;28;20040;-80
2022/09/06 07:14:42;;;;;;;35.58;16.73;;;;;;;21.67;100.00;101202.13;5012670;28;20401;-79
2022/09/06 07:17:08;;;;;;;36.33;17.80;;;;;;;21.48;100.00;101195.13;5028460;28;20036;-80
2022/09/06 07:19:33;;;;;;;31.85;18.17;;;;;;;21.84;100.00;101201.97;5011924;28;20034;-80
2022/09/06 07:22:00;;;;;;;41.55;19.52;;;;;;;21.72;100.00;101197.91;5020980;28;20083;-80
2022/09/06 07:24:27;;;;;;;45.25;19.25;;;;;;;21.82;100.00;101190.16;5013828;28;20030;-81
2022/09/06 07:26:53;;;;;;;32.75;17.85;;;;;;;22.07;100.00;101195.50;5016274;28;20029;-80
2022/09/06 07:29:25;;;;;;;31.48;16.83;;;;;;;22.03;100.00;101190.31;5023131;28;20037;-79
2022/09/06 07:31:56;;;;;;;32.30;17.50;;;;;;;22.01;100.00;101197.16;4987804;28;20036;-83
2022/09/06 07:34:24;;;;;;;32.90;15.68;;;;;;;22.18;100.00;101198.69;5004317;28;20048;-80
2022/09/06 07:36:54;;;;;;;36.15;15.43;;;;;;;21.96;100.00;101192.13;5037411;28;20036;-80
2022/09/06 07:39:20;;;;;;;33.50;14.45;;;;;;;22.28;100.00;101204.00;5035555;28;20132;-79
2022/09/06 07:41:51;;;;;;;27.52;14.20;;;;;;;22.60;100.00;101210.34;5023704;28;20032;-80
2022/09/06 07:44:18;;;;;;;31.13;14.95;;;;;;;22.79;100.00;101208.00;5026612;28;20030;-80
2022/09/06 07:46:46;;;;;;;35.17;14.20;;;;;;;22.86;100.00;101206.19;5006839;28;20091;-81
2022/09/06 07:49:12;;;;;;;27.80;13.07;;;;;;;23.47;100.00;101203.94;5027862;28;20469;-81
2022/09/06 07:51:41;;;;;;;26.42;14.02;;;;;;;23.42;100.00;101191.66;4992827;28;20063;-80
2022/09/06 07:54:15;;;;;;;37.78;12.88;;;;;;;23.78;100.00;101183.19;5019526;28;20038;-81
2022/09/06 07:56:45;;;;;;;25.00;12.82;;;;;;;23.85;100.00;101184.13;5037264;28;20034;-79
2022/09/06 07:59:18;;;;;;;28.67;12.10;;;;;;;24.13;100.00;101188.88;4994616;28;20117;-80
2022/09/06 08:01:46;;;;;;;25.75;10.90;;;;;;;24.52;100.00;101189.41;4986907;28;20493;-80
2022/09/06 08:04:16;;;;;;;20.23;10.10;;;;;;;24.47;100.00;101189.16;5002970;28;20041;-80
2022/09/06 08:06:51;;;;;;;21.65;9.63;;;;;;;24.08;100.00;101184.97;5006226;28;20486;-80
2022/09/06 08:09:22;;;;;;;25.00;10.38;;;;;;;24.79;100.00;101183.97;5019924;28;20049;-80
2022/09/06 08:11:55;;;;;;;21.83;10.52;;;;;;;24.62;100.00;101187.09;5002212;28;20035;-80
2022/09/06 08:14:22;;;;;;;17.17;9.40;;;;;;;25.13;100.00;101178.28;5030886;28;20056;-80
2022/09/06 08:16:50;;;;;;;41.30;8.50;;;;;;;25.05;100.00;101181.28;5001469;28;20041;-81
2022/09/06 08:19:17;;;;;;;18.30;7.13;;;;;;;25.48;100.00;101188.56;5014221;28;20029;-81
2022/09/06 08:21:47;;;;;;;16.75;7.32;;;;;;;25.86;100.00;101169.19;5014709;28;20033;-80
2022/09/06 08:24:19;;;;;;;15.00;6.13;;;;;;;26.05;100.00;101175.06;5001979;28;20081;-80
2022/09/06 08:26:45;;;;;;;16.95;6.00;;;;;;;26.04;100.00;101173.34;5028503;28;20034;-79
2022/09/06 08:29:13;;;;;;;10.93;5.57;;;;;;;26.16;100.00;101177.22;5010287;28;20050;-79
2022/09/06 08:31:44;;;;;;;12.75;4.88;;;;;;;26.42;99.93;101158.59;5015556;28;20030;-80
2022/09/06 08:34:13;;;;;;;25.80;4.75;;;;;;;26.57;100.00;101167.63;5029275;28;20026;-80
2022/09/06 08:36:40;;;;;;;9.85;4.32;;;;;;;26.55;96.36;101174.56;5020459;28;20057;-81
2022/09/06 08:39:09;;;;;;;10.30;3.03;;;;;;;26.40;97.67;101169.19;5027714;28;20081;-80
2022/09/06 08:41:59;;;;;;;11.02;3.00;;;;;;;27.09;92.61;101162.06;5019617;28;20040;-81
2022/09/06 08:44:36;;;;;;;8.70;2.88;;;;;;;26.83;92.36;101165.00;5017013;28;20097;-80
2022/09/06 08:47:09;;;;;;;12.20;2.22;;;;;;;26.95;93.37;101172.50;5020234;28;20029;-80
2022/09/06 08:49:56;;;;;;;8.27;2.72;;;;;;;27.14;89.58;101162.25;5022574;28;20056;-80
2022/09/06 08:52:24;;;;;;;8.57;2.40;;;;;;;27.32;88.52;101164.34;5020307;28;20061;-81
2022/09/06 08:54:53;;;;;;;9.23;2.70;;;;;;;27.18;89.10;101161.81;5036998;28;20026;-81
2022/09/06 08:57:22;;;;;;;21.38;3.53;;;;;;;26.12;93.85;101153.47;5018040;28;20030;-78
2022/09/06 09:00:02;;;;;;;13.65;3.45;;;;;;;26.73;91.83;101154.22;5022184;28;20029;-79
2022/09/06 09:02:43;;;;;;;10.43;3.58;;;;;;;26.32;92.45;101146.97;5038199;28;20034;-80
2022/09/06 09:05:32;;;;;;;5.82;3.38;;;;;;;27.43;87.21;101171.22;5004628;28;20037;-80
2022/09/06 09:08:01;;;;;;;9.73;3.20;;;;;;;26.49;90.89;101181.06;5020174;28;20025;-80
2022/09/06 09:10:39;;;;;;;11.52;3.80;;;;;;;27.10;88.66;101165.75;5019557;28;20034;-81
2022/09/06 09:13:15;;;;;;;8.52;3.92;;;;;;;26.86;89.81;101144.88;5020457;28;20026;-80
2022/09/06 09:15:41;;;;;;;9.63;4.40;;;;;;;27.23;87.67;101147.94;5022760;28;20553;-80
2022/09/06 09:18:07;;;;;;;9.43;3.83;;;;;;;27.19;88.56;101143.84;4989757;28;20115;-81
2022/09/06 09:20:33;;;;;;;9.15;4.07;;;;;;;27.52;85.68;101143.69;5019960;28;20054;-81
2022/09/06 09:23:00;;;;;;;6.60;3.20;;;;;;;27.48;86.90;101128.31;5003735;28;20093;-79
2022/09/06 09:25:28;;;;;;;5.88;3.03;;;;;;;27.77;86.24;101140.03;5001889;28;20474;-79
2022/09/06 09:27:56;;;;;;;9.85;2.60;;;;;;;28.18;83.85;101159.16;5018118;28;20030;-80
2022/09/06 09:30:26;;;;;;;8.95;2.97;;;;;;;28.17;77.55;101142.50;4985033;28;20100;-80
2022/09/06 09:32:58;;;;;;;11.52;2.78;;;;;;;27.86;79.77;101145.16;5021272;28;20029;-81
2022/09/06 09:35:29;;;;;;;7.55;2.78;;;;;;;27.57;80.22;101149.47;4992145;28;20134;-79
2022/09/06 09:38:01;;;;;;;15.40;2.80;;;;;;;27.93;78.89;101152.69;5020392;28;20045;-80
2022/09/06 09:40:30;;;;;;;7.85;3.10;;;;;;;27.97;78.15;101145.50;5009401;28;20049;-81
2022/09/06 09:43:10;;;;;;;8.02;2.53;;;;;;;28.14;77.06;101138.22;5026752;28;20040;-82
2022/09/06 09:45:37;;;;;;;4.32;2.80;;;;;;;27.40;80.20;101142.66;5042934;28;20063;-85
2022/09/06 09:48:19;;;;;;;4.65;2.70;;;;;;;28.15;78.31;101144.69;5025883;28;20033;-84
2022/09/06 09:50:45;;;;;;;16.05;3.00;;;;;;;28.30;76.55;101138.69;5022157;28;20033;-84
2022/09/06 09:53:19;;;;;;;7.00;2.00;;;;;;;28.54;77.70;101140.59;5053210;28;20025;-82
2022/09/06 09:55:45;;;;;;;8.98;2.92;;;;;;;28.21;76.59;101150.25;5027580;28;20303;-83
2022/09/06 09:58:28;;;;;;;13.77;3.47;;;;;;;28.04;76.66;101151.97;5030336;28;20038;-83
2022/09/06 10:01:11;;;;;;;11.10;3.35;;;;;;;28.74;74.63;101140.38;5018585;28;20029;-83
2022/09/06 10:03:37;;;;;;;11.07;3.22;;;;;;;28.66;73.24;101142.66;5036169;28;20038;-83
2022/09/06 10:06:09;;;;;;;6.82;2.85;;;;;;;28.05;76.65;101140.44;5029025;28;20113;-83
2022/09/06 10:08:41;;;;;;;10.02;3.40;;;;;;;28.10;77.36;101139.75;5029110;28;20033;-83
2022/09/06 10:11:13;;;;;;;7.73;3.53;;;;;;;28.10;76.48;101142.56;5040302;28;20021;-83
2022/09/06 10:13:44;;;;;;;7.30;3.15;;;;;;;28.33;76.56;101133.44;5025548;28;20036;-83
2022/09/06 10:16:11;;;;;;;7.53;2.97;;;;;;;28.62;75.27;101127.34;5011348;28;20048;-82
2022/09/06 10:18:42;;;;;;;5.20;2.85;;;;;;;28.60;74.91;101133.22;5038285;28;20112;-83
2022/09/06 10:21:14;;;;;;;6.30;2.83;;;;;;;29.01;73.96;101125.06;5038348;28;20034;-82
2022/09/06 10:24:22;;;;;;;5.65;2.70;;;;;;;28.82;74.11;101133.56;5021088;28;20065;-84
2022/09/06 10:26:52;;;;;;;5.85;2.60;;;;;;;29.20;71.31;101131.59;5018928;28;20025;-83
2022/09/06 10:29:54;;;;;;;6.32;2.08;;;;;;;29.08;71.72;101129.53;5046462;28;20100;-84
2022/09/06 10:32:47;;;;;;;4.63;1.85;;;;;;;28.99;70.98;101127.28;5018385;28;20108;-84
2022/09/06 10:35:30;;;;;;;6.57;1.85;;;;;;;29.00;72.48;101138.31;5001915;28;20029;-84
2022/09/06 10:37:59;;;;;;;;;;;;;;;28.92;71.76;101135.84;5026608;28;20028;-82
2022/09/06 10:40:36;;;;;;;5.47;2.47;;;;;;;29.23;70.48;101131.97;5034464;28;20328;-81
2022/09/06 10:43:12;;;;;;;5.50;2.22;;;;;;;29.09;71.58;101130.38;5019251;28;20026;-80
2022/09/06 10:45:52;;;;;;;6.25;2.45;;;;;;;29.39;70.82;101135.22;5031103;28;20037;-80
2022/09/06 10:48:34;;;;;;;8.32;2.00;;;;;;;28.78;71.95;101130.38;5022882;28;20034;-79
2022/09/06 10:51:07;;;;;;;15.10;2.13;;;;;;;29.02;70.68;101132.44;5029138;28;20497;-82
2022/09/06 10:54:07;;;;;;;6.32;1.85;;;;;;;29.34;70.40;101130.28;5027352;28;20037;-82
2022/09/06 10:56:38;;;;;;;5.60;2.00;;;;;;;29.43;68.69;101114.72;5023049;28;20034;-81
2022/09/06 10:59:27;;;;;;;6.30;1.70;;;;;;;29.60;68.30;101117.72;5003570;28;20025;-82
2022/09/06 11:02:08;;;;;;;8.02;1.88;;;;;;;29.43;69.00;101117.53;5037276;28;20084;-81
2022/09/06 11:04:39;;;;;;;3.60;1.50;;;;;;;29.48;69.78;101126.19;5019788;28;20513;-81
2022/09/06 11:07:34;;;;;;;7.40;2.00;;;;;;;29.07;69.83;101121.31;5035115;28;20041;-80
2022/09/06 11:10:22;;;;;;;6.55;1.98;;;;;;;29.31;70.85;101128.81;5034285;28;20030;-80
2022/09/06 11:13:09;;;;;;;6.05;2.25;;;;;;;29.20;70.97;101123.97;5020041;28;20393;-82
2022/09/06 11:15:45;;;;;;;7.50;2.08;;;;;;;29.55;69.83;101133.66;5030731;28;20531;-81
2022/09/06 11:18:22;;;;;;;;;;;;;;;29.02;70.75;101127.66;5017417;28;20037;-80
2022/09/06 11:21:03;;;;;;;10.88;2.05;;;;;;;28.85;72.21;101126.63;5028433;28;19920;-81
2022/09/06 11:23:34;;;;;;;5.63;1.88;;;;;;;29.97;67.10;101128.84;5038818;28;20440;-81
2022/09/06 11:26:39;;;;;;;3.78;2.00;;;;;;;29.22;68.98;101123.75;5038223;28;20033;-79
2022/09/06 11:29:08;;;;;;;8.95;1.90;;;;;;;29.67;66.59;101129.75;5029860;28;20038;-81
2022/09/06 11:31:54;;;;;;;6.80;1.90;;;;;;;30.18;64.71;101135.00;5027917;28;20058;-81